sensor_id;sensor_type;location;lat;lon;timestamp;pressure;altitude;pressure_sealevel;temperature;humidity
61119;BME280;51448;51.660;5.824;2023-06-19T00:01:26;100721.88;;;21.32;71.56
61119;BME280;51448;51.660;5.824;2023-06-19T00:04:14;100718.84;;;21.37;71.99
61119;BME280;51448;51.660;5.824;2023-06-19T00:07:03;100726.66;;;21.40;71.57
61119;BME280;51448;51.660;5.824;2023-06-19T00:09:51;100742.41;;;21.44;71.83
61119;BME280;51448;51.660;5.824;2023-06-19T00:12:39;100740.25;;;21.49;71.83
61119;BME280;51448;51.660;5.824;2023-06-19T00:15:27;100746.09;;;21.55;71.79
61119;BME280;51448;51.660;5.824;2023-06-19T00:18:16;100751.22;;;21.58;71.95
61119;BME280;51448;51.660;5.824;2023-06-19T00:21:07;100742.94;;;21.61;71.60
61119;BME280;51448;51.660;5.824;2023-06-19T00:23:55;100749.78;;;21.65;71.66
61119;BME280;51448;51.660;5.824;2023-06-19T00:26:43;100748.69;;;21.67;71.42
61119;BME280;51448;51.660;5.824;2023-06-19T00:29:32;100756.50;;;21.70;71.97
61119;BME280;51448;51.660;5.824;2023-06-19T00:32:20;100759.91;;;21.73;71.80
61119;BME280;51448;51.660;5.824;2023-06-19T00:35:09;100766.00;;;21.75;71.72
61119;BME280;51448;51.660;5.824;2023-06-19T00:37:56;100764.06;;;21.77;71.74
61119;BME280;51448;51.660;5.824;2023-06-19T00:40:48;100774.50;;;21.80;71.70
61119;BME280;51448;51.660;5.824;2023-06-19T00:43:36;100776.22;;;21.81;71.68
61119;BME280;51448;51.660;5.824;2023-06-19T00:46:23;100790.34;;;21.83;71.52
61119;BME280;51448;51.660;5.824;2023-06-19T00:49:12;100783.06;;;21.85;71.62
61119;BME280;51448;51.660;5.824;2023-06-19T00:52:02;100790.97;;;21.86;71.10
61119;BME280;51448;51.660;5.824;2023-06-19T00:54:50;100789.88;;;21.89;70.98
61119;BME280;51448;51.660;5.824;2023-06-19T00:57:38;100792.47;;;21.90;71.02
61119;BME280;51448;51.660;5.824;2023-06-19T01:00:28;100793.31;;;21.91;70.96
61119;BME280;51448;51.660;5.824;2023-06-19T01:03:17;100786.22;;;21.90;70.80
61119;BME280;51448;51.660;5.824;2023-06-19T01:06:09;100785.28;;;21.91;71.14
61119;BME280;51448;51.660;5.824;2023-06-19T01:09:05;100793.41;;;21.89;70.75
61119;BME280;51448;51.660;5.824;2023-06-19T01:12:05;100795.34;;;21.87;71.22
61119;BME280;51448;51.660;5.824;2023-06-19T01:15:03;100805.44;;;21.84;70.67
61119;BME280;51448;51.660;5.824;2023-06-19T01:17:55;100805.56;;;21.82;71.07
61119;BME280;51448;51.660;5.824;2023-06-19T01:20:45;100808.47;;;21.79;70.79
61119;BME280;51448;51.660;5.824;2023-06-19T01:23:33;100798.84;;;21.77;71.02
61119;BME280;51448;51.660;5.824;2023-06-19T01:26:23;100808.81;;;21.75;70.58
61119;BME280;51448;51.660;5.824;2023-06-19T01:29:17;100808.09;;;21.73;70.68
61119;BME280;51448;51.660;5.824;2023-06-19T01:32:10;100803.94;;;21.68;70.75
61119;BME280;51448;51.660;5.824;2023-06-19T01:35:09;100795.38;;;21.63;70.90
61119;BME280;51448;51.660;5.824;2023-06-19T01:38:00;100804.59;;;21.59;70.99
61119;BME280;51448;51.660;5.824;2023-06-19T01:40:49;100796.81;;;21.56;70.94
61119;BME280;51448;51.660;5.824;2023-06-19T01:43:39;100803.13;;;21.55;70.92
61119;BME280;51448;51.660;5.824;2023-06-19T01:46:27;100800.44;;;21.55;71.20
61119;BME280;51448;51.660;5.824;2023-06-19T01:49:15;100807.88;;;21.52;71.45
61119;BME280;51448;51.660;5.824;2023-06-19T01:52:06;100811.75;;;21.47;72.07
61119;BME280;51448;51.660;5.824;2023-06-19T01:54:54;100813.03;;;21.42;72.22
61119;BME280;51448;51.660;5.824;2023-06-19T01:57:42;100817.00;;;21.36;72.52
61119;BME280;51448;51.660;5.824;2023-06-19T02:00:30;100829.97;;;21.29;72.72
61119;BME280;51448;51.660;5.824;2023-06-19T02:03:19;100827.50;;;21.26;72.62
61119;BME280;51448;51.660;5.824;2023-06-19T02:06:07;100825.41;;;21.19;72.68
61119;BME280;51448;51.660;5.824;2023-06-19T02:08:55;100831.94;;;21.15;72.95
61119;BME280;51448;51.660;5.824;2023-06-19T02:11:43;100833.34;;;21.07;73.16
61119;BME280;51448;51.660;5.824;2023-06-19T02:14:30;100827.59;;;21.01;73.54
61119;BME280;51448;51.660;5.824;2023-06-19T02:17:18;100834.34;;;20.94;73.80
61119;BME280;51448;51.660;5.824;2023-06-19T02:20:07;100838.41;;;20.86;74.42
61119;BME280;51448;51.660;5.824;2023-06-19T02:22:56;100847.06;;;20.77;74.90
61119;BME280;51448;51.660;5.824;2023-06-19T02:25:44;100849.34;;;20.70;75.12
61119;BME280;51448;51.660;5.824;2023-06-19T02:28:32;100858.75;;;20.63;75.90
61119;BME280;51448;51.660;5.824;2023-06-19T02:31:23;100860.19;;;20.55;76.57
61119;BME280;51448;51.660;5.824;2023-06-19T02:34:11;100865.22;;;20.46;76.76
61119;BME280;51448;51.660;5.824;2023-06-19T02:36:59;100864.91;;;20.38;77.39
61119;BME280;51448;51.660;5.824;2023-06-19T02:39:47;100868.97;;;20.31;78.03
61119;BME280;51448;51.660;5.824;2023-06-19T02:42:35;100867.66;;;20.24;78.56
61119;BME280;51448;51.660;5.824;2023-06-19T02:45:23;100866.16;;;20.20;78.52
61119;BME280;51448;51.660;5.824;2023-06-19T02:48:11;100879.63;;;20.18;78.43
61119;BME280;51448;51.660;5.824;2023-06-19T02:50:59;100874.47;;;20.15;79.16
61119;BME280;51448;51.660;5.824;2023-06-19T02:53:47;100884.31;;;20.15;79.27
61119;BME280;51448;51.660;5.824;2023-06-19T02:56:35;100879.16;;;20.12;80.02
61119;BME280;51448;51.660;5.824;2023-06-19T02:59:23;100882.16;;;20.07;80.22
61119;BME280;51448;51.660;5.824;2023-06-19T03:02:12;100888.75;;;20.01;80.46
61119;BME280;51448;51.660;5.824;2023-06-19T03:05:02;100895.25;;;19.97;80.77
61119;BME280;51448;51.660;5.824;2023-06-19T03:07:50;100892.06;;;19.92;81.12
61119;BME280;51448;51.660;5.824;2023-06-19T03:10:39;100889.56;;;19.89;81.16
61119;BME280;51448;51.660;5.824;2023-06-19T03:13:27;100895.03;;;19.87;81.23
61119;BME280;51448;51.660;5.824;2023-06-19T03:16:15;100889.97;;;19.83;81.35
61119;BME280;51448;51.660;5.824;2023-06-19T03:19:03;100898.09;;;19.81;81.52
61119;BME280;51448;51.660;5.824;2023-06-19T03:21:53;100901.06;;;19.77;81.78
61119;BME280;51448;51.660;5.824;2023-06-19T03:24:41;100890.59;;;19.74;82.00
61119;BME280;51448;51.660;5.824;2023-06-19T03:27:39;100898.88;;;19.69;82.18
61119;BME280;51448;51.660;5.824;2023-06-19T03:30:27;100903.47;;;19.67;82.36
61119;BME280;51448;51.660;5.824;2023-06-19T03:33:15;100901.81;;;19.64;82.42
61119;BME280;51448;51.660;5.824;2023-06-19T03:36:06;100905.56;;;19.62;82.60
61119;BME280;51448;51.660;5.824;2023-06-19T03:39:04;100900.44;;;19.59;82.88
61119;BME280;51448;51.660;5.824;2023-06-19T03:41:52;100901.47;;;19.56;82.79
61119;BME280;51448;51.660;5.824;2023-06-19T03:44:40;100904.34;;;19.53;82.99
61119;BME280;51448;51.660;5.824;2023-06-19T03:47:28;100909.84;;;19.50;83.40
61119;BME280;51448;51.660;5.824;2023-06-19T03:50:16;100918.94;;;19.47;83.50
61119;BME280;51448;51.660;5.824;2023-06-19T03:53:09;100911.13;;;19.44;84.10
61119;BME280;51448;51.660;5.824;2023-06-19T03:55:57;100911.31;;;19.41;83.88
61119;BME280;51448;51.660;5.824;2023-06-19T03:58:45;100930.06;;;19.40;84.33
61119;BME280;51448;51.660;5.824;2023-06-19T04:01:33;100937.31;;;19.38;84.61
61119;BME280;51448;51.660;5.824;2023-06-19T04:04:21;100935.78;;;19.34;84.92
61119;BME280;51448;51.660;5.824;2023-06-19T04:07:09;100949.13;;;19.34;85.20
61119;BME280;51448;51.660;5.824;2023-06-19T04:10:01;100941.50;;;19.27;83.97
61119;BME280;51448;51.660;5.824;2023-06-19T04:12:49;100941.50;;;19.27;84.97
61119;BME280;51448;51.660;5.824;2023-06-19T04:15:36;100950.94;;;19.33;85.46
61119;BME280;51448;51.660;5.824;2023-06-19T04:18:25;100946.28;;;19.37;85.83
61119;BME280;51448;51.660;5.824;2023-06-19T04:21:16;100955.91;;;19.39;86.26
61119;BME280;51448;51.660;5.824;2023-06-19T04:24:04;100960.16;;;19.42;85.99
61119;BME280;51448;51.660;5.824;2023-06-19T04:26:56;100961.59;;;19.47;86.19
61119;BME280;51448;51.660;5.824;2023-06-19T04:29:44;100957.88;;;19.50;86.43
61119;BME280;51448;51.660;5.824;2023-06-19T04:32:33;100962.06;;;19.54;86.50
61119;BME280;51448;51.660;5.824;2023-06-19T04:35:22;100953.88;;;19.57;86.92
61119;BME280;51448;51.660;5.824;2023-06-19T04:38:11;100969.66;;;19.60;87.17
61119;BME280;51448;51.660;5.824;2023-06-19T04:41:02;100966.16;;;19.60;87.27
61119;BME280;51448;51.660;5.824;2023-06-19T04:43:50;100969.66;;;19.60;87.59
61119;BME280;51448;51.660;5.824;2023-06-19T04:46:38;100974.91;;;19.62;87.81
61119;BME280;51448;51.660;5.824;2023-06-19T04:49:29;100988.09;;;19.65;88.31
61119;BME280;51448;51.660;5.824;2023-06-19T04:52:17;100985.50;;;19.63;88.49
61119;BME280;51448;51.660;5.824;2023-06-19T04:55:07;100985.28;;;19.66;88.72
61119;BME280;51448;51.660;5.824;2023-06-19T04:57:56;100980.63;;;19.70;88.95
61119;BME280;51448;51.660;5.824;2023-06-19T05:00:44;100977.69;;;19.75;88.77
61119;BME280;51448;51.660;5.824;2023-06-19T05:03:32;100980.94;;;19.80;89.49
61119;BME280;51448;51.660;5.824;2023-06-19T05:06:22;100986.94;;;19.83;89.36
61119;BME280;51448;51.660;5.824;2023-06-19T05:09:13;100982.34;;;19.85;89.41
61119;BME280;51448;51.660;5.824;2023-06-19T05:12:01;100976.88;;;19.87;89.42
61119;BME280;51448;51.660;5.824;2023-06-19T05:14:48;100988.44;;;19.87;89.56
61119;BME280;51448;51.660;5.824;2023-06-19T05:17:36;100985.78;;;19.87;89.70
61119;BME280;51448;51.660;5.824;2023-06-19T05:20:26;101002.56;;;19.89;89.91
61119;BME280;51448;51.660;5.824;2023-06-19T05:23:14;101001.56;;;19.90;90.25
61119;BME280;51448;51.660;5.824;2023-06-19T05:26:02;100989.09;;;19.91;90.30
61119;BME280;51448;51.660;5.824;2023-06-19T05:28:49;100998.72;;;19.94;90.28
61119;BME280;51448;51.660;5.824;2023-06-19T05:31:37;101003.84;;;19.97;90.53
61119;BME280;51448;51.660;5.824;2023-06-19T05:34:25;100999.28;;;19.99;90.54
61119;BME280;51448;51.660;5.824;2023-06-19T05:37:13;101000.13;;;19.99;90.70
61119;BME280;51448;51.660;5.824;2023-06-19T05:40:01;101003.53;;;20.01;90.83
61119;BME280;51448;51.660;5.824;2023-06-19T05:42:49;101010.53;;;20.04;90.64
61119;BME280;51448;51.660;5.824;2023-06-19T05:45:37;101001.34;;;20.08;91.05
61119;BME280;51448;51.660;5.824;2023-06-19T05:48:25;101009.91;;;20.13;91.00
61119;BME280;51448;51.660;5.824;2023-06-19T05:51:13;101014.00;;;20.19;91.10
61119;BME280;51448;51.660;5.824;2023-06-19T05:54:02;101015.50;;;20.23;91.15
61119;BME280;51448;51.660;5.824;2023-06-19T05:56:52;101014.34;;;20.27;90.96
61119;BME280;51448;51.660;5.824;2023-06-19T05:59:40;101023.88;;;20.31;90.81
61119;BME280;51448;51.660;5.824;2023-06-19T06:02:29;101012.97;;;20.34;90.88
61119;BME280;51448;51.660;5.824;2023-06-19T06:05:17;101019.72;;;20.40;90.75
61119;BME280;51448;51.660;5.824;2023-06-19T06:08:07;101020.47;;;20.42;90.77
61119;BME280;51448;51.660;5.824;2023-06-19T06:10:55;101026.47;;;20.45;91.07
61119;BME280;51448;51.660;5.824;2023-06-19T06:13:43;101024.34;;;20.50;91.08
61119;BME280;51448;51.660;5.824;2023-06-19T06:16:31;101026.59;;;20.57;91.19
61119;BME280;51448;51.660;5.824;2023-06-19T06:19:20;101027.97;;;20.64;90.72
61119;BME280;51448;51.660;5.824;2023-06-19T06:22:10;101031.16;;;20.69;90.59
61119;BME280;51448;51.660;5.824;2023-06-19T06:24:58;101028.28;;;20.72;90.69
61119;BME280;51448;51.660;5.824;2023-06-19T06:27:46;101038.34;;;20.81;90.25
61119;BME280;51448;51.660;5.824;2023-06-19T06:33:22;101043.66;;;21.08;89.31
61119;BME280;51448;51.660;5.824;2023-06-19T06:36:10;101045.34;;;21.22;89.27
61119;BME280;51448;51.660;5.824;2023-06-19T06:39:12;101056.59;;;21.27;88.57
61119;BME280;51448;51.660;5.824;2023-06-19T06:41:59;101049.84;;;21.35;88.47
61119;BME280;51448;51.660;5.824;2023-06-19T06:44:47;101054.69;;;21.42;87.96
61119;BME280;51448;51.660;5.824;2023-06-19T06:47:35;101063.16;;;21.62;87.40
61119;BME280;51448;51.660;5.824;2023-06-19T06:50:23;101065.13;;;21.84;86.08
61119;BME280;51448;51.660;5.824;2023-06-19T06:53:11;101070.91;;;21.90;85.58
61119;BME280;51448;51.660;5.824;2023-06-19T06:55:59;101070.63;;;22.06;85.48
61119;BME280;51448;51.660;5.824;2023-06-19T06:58:47;101078.41;;;22.22;84.72
61119;BME280;51448;51.660;5.824;2023-06-19T07:01:35;101071.84;;;22.39;84.27
61119;BME280;51448;51.660;5.824;2023-06-19T07:04:23;101083.59;;;22.49;83.63
61119;BME280;51448;51.660;5.824;2023-06-19T07:07:11;101089.75;;;22.63;82.57
61119;BME280;51448;51.660;5.824;2023-06-19T07:09:59;101085.69;;;22.81;81.97
61119;BME280;51448;51.660;5.824;2023-06-19T07:12:47;101085.97;;;23.01;81.60
61119;BME280;51448;51.660;5.824;2023-06-19T07:15:36;101089.66;;;23.00;81.15
61119;BME280;51448;51.660;5.824;2023-06-19T07:18:24;101093.03;;;22.90;81.26
61119;BME280;51448;51.660;5.824;2023-06-19T07:21:13;101101.31;;;22.87;81.08
61119;BME280;51448;51.660;5.824;2023-06-19T07:24:02;101102.28;;;22.86;80.23
61119;BME280;51448;51.660;5.824;2023-06-19T07:26:50;101104.47;;;22.81;79.95
61119;BME280;51448;51.660;5.824;2023-06-19T07:29:38;101116.19;;;22.92;79.53
61119;BME280;51448;51.660;5.824;2023-06-19T07:32:26;101115.06;;;23.07;77.86
61119;BME280;51448;51.660;5.824;2023-06-19T07:35:14;101109.22;;;23.13;77.17
61119;BME280;51448;51.660;5.824;2023-06-19T07:38:02;101103.78;;;23.26;76.63
61119;BME280;51448;51.660;5.824;2023-06-19T07:40:50;101109.41;;;23.45;76.20
61119;BME280;51448;51.660;5.824;2023-06-19T07:43:38;101120.28;;;23.66;75.18
61119;BME280;51448;51.660;5.824;2023-06-19T07:46:26;101128.03;;;23.82;74.53
61119;BME280;51448;51.660;5.824;2023-06-19T07:49:14;101127.53;;;23.88;74.21
61119;BME280;51448;51.660;5.824;2023-06-19T07:52:02;101128.78;;;23.96;73.40
61119;BME280;51448;51.660;5.824;2023-06-19T07:54:56;101138.53;;;24.08;73.17
61119;BME280;51448;51.660;5.824;2023-06-19T07:57:44;101133.75;;;24.12;73.29
61119;BME280;51448;51.660;5.824;2023-06-19T08:00:32;101135.81;;;24.30;72.87
61119;BME280;51448;51.660;5.824;2023-06-19T08:03:20;101141.78;;;24.34;72.55
61119;BME280;51448;51.660;5.824;2023-06-19T08:06:09;101129.84;;;24.27;72.08
61119;BME280;51448;51.660;5.824;2023-06-19T08:08:57;101130.44;;;24.19;71.85
61119;BME280;51448;51.660;5.824;2023-06-19T08:11:44;101122.66;;;24.05;70.99
61119;BME280;51448;51.660;5.824;2023-06-19T08:14:32;101130.34;;;24.09;71.07
61119;BME280;51448;51.660;5.824;2023-06-19T08:17:20;101129.03;;;24.04;70.78
61119;BME280;51448;51.660;5.824;2023-06-19T08:20:08;101125.94;;;23.97;71.04
61119;BME280;51448;51.660;5.824;2023-06-19T08:22:57;101132.69;;;23.92;70.74
61119;BME280;51448;51.660;5.824;2023-06-19T08:25:45;101132.16;;;24.09;70.76
61119;BME280;51448;51.660;5.824;2023-06-19T08:28:33;101150.47;;;24.38;70.40
61119;BME280;51448;51.660;5.824;2023-06-19T08:31:21;101151.28;;;24.61;69.18
61119;BME280;51448;51.660;5.824;2023-06-19T08:34:15;101133.91;;;24.76;67.97
61119;BME280;51448;51.660;5.824;2023-06-19T08:37:02;101145.84;;;24.83;66.97
61119;BME280;51448;51.660;5.824;2023-06-19T08:39:50;101146.00;;;24.82;67.67
61119;BME280;51448;51.660;5.824;2023-06-19T08:42:38;101151.50;;;24.80;67.61
61119;BME280;51448;51.660;5.824;2023-06-19T08:45:27;101142.19;;;24.84;67.55
61119;BME280;51448;51.660;5.824;2023-06-19T08:48:15;101145.47;;;24.88;66.81
61119;BME280;51448;51.660;5.824;2023-06-19T08:51:04;101142.84;;;24.98;67.05
61119;BME280;51448;51.660;5.824;2023-06-19T08:54:02;101150.47;;;24.93;66.60
61119;BME280;51448;51.660;5.824;2023-06-19T08:56:51;101158.56;;;24.81;66.94
61119;BME280;51448;51.660;5.824;2023-06-19T08:59:48;101161.84;;;24.85;66.55
61119;BME280;51448;51.660;5.824;2023-06-19T09:02:44;101162.69;;;24.85;66.57
61119;BME280;51448;51.660;5.824;2023-06-19T09:05:41;101162.47;;;24.88;66.25
61119;BME280;51448;51.660;5.824;2023-06-19T09:08:38;101176.75;;;24.89;65.70
61119;BME280;51448;51.660;5.824;2023-06-19T09:11:25;101178.13;;;24.83;65.57
61119;BME280;51448;51.660;5.824;2023-06-19T09:14:13;101180.66;;;24.96;65.94
61119;BME280;51448;51.660;5.824;2023-06-19T09:17:11;101184.94;;;25.20;65.20
61119;BME280;51448;51.660;5.824;2023-06-19T09:20:01;101179.97;;;25.15;65.09
61119;BME280;51448;51.660;5.824;2023-06-19T09:22:49;101178.72;;;25.19;64.59
61119;BME280;51448;51.660;5.824;2023-06-19T09:25:53;101173.69;;;25.26;65.02
61119;BME280;51448;51.660;5.824;2023-06-19T09:28:43;101186.78;;;25.19;65.03
61119;BME280;51448;51.660;5.824;2023-06-19T09:31:32;101176.47;;;25.36;65.21
61119;BME280;51448;51.660;5.824;2023-06-19T09:34:21;101180.81;;;25.48;64.87
61119;BME280;51448;51.660;5.824;2023-06-19T09:37:10;101188.09;;;25.36;63.21
61119;BME280;51448;51.660;5.824;2023-06-19T09:40:03;101202.78;;;25.32;63.80
61119;BME280;51448;51.660;5.824;2023-06-19T09:42:58;101202.34;;;25.27;63.39
61119;BME280;51448;51.660;5.824;2023-06-19T09:45:50;101196.88;;;25.38;63.40
61119;BME280;51448;51.660;5.824;2023-06-19T09:48:42;101196.63;;;25.62;62.96
61119;BME280;51448;51.660;5.824;2023-06-19T09:51:37;101193.84;;;25.74;62.62
61119;BME280;51448;51.660;5.824;2023-06-19T09:54:28;101194.84;;;25.94;62.47
61119;BME280;51448;51.660;5.824;2023-06-19T09:57:17;101198.03;;;26.08;62.72
61119;BME280;51448;51.660;5.824;2023-06-19T10:00:07;101204.91;;;26.22;62.09
61119;BME280;51448;51.660;5.824;2023-06-19T10:03:11;101200.41;;;26.33;61.78
61119;BME280;51448;51.660;5.824;2023-06-19T10:06:01;101197.72;;;26.42;60.67
61119;BME280;51448;51.660;5.824;2023-06-19T10:08:51;101198.72;;;26.41;60.22
61119;BME280;51448;51.660;5.824;2023-06-19T10:11:49;101210.66;;;26.48;60.93
61119;BME280;51448;51.660;5.824;2023-06-19T10:14:46;101208.03;;;26.58;60.76
61119;BME280;51448;51.660;5.824;2023-06-19T10:17:38;101195.97;;;26.62;60.08
61119;BME280;51448;51.660;5.824;2023-06-19T10:20:35;101207.75;;;26.61;58.38
61119;BME280;51448;51.660;5.824;2023-06-19T10:23:36;101203.19;;;26.62;59.03
61119;BME280;51448;51.660;5.824;2023-06-19T10:26:35;101203.06;;;26.63;58.78
61119;BME280;51448;51.660;5.824;2023-06-19T10:29:23;101201.38;;;26.72;58.83
61119;BME280;51448;51.660;5.824;2023-06-19T10:32:11;101207.50;;;26.84;59.01
61119;BME280;51448;51.660;5.824;2023-06-19T10:34:59;101205.41;;;26.97;58.01
61119;BME280;51448;51.660;5.824;2023-06-19T10:37:47;101198.72;;;27.11;58.35
61119;BME280;51448;51.660;5.824;2023-06-19T10:40:36;101200.31;;;27.23;57.45
61119;BME280;51448;51.660;5.824;2023-06-19T10:43:25;101198.63;;;27.32;57.37
61119;BME280;51448;51.660;5.824;2023-06-19T10:46:18;101208.53;;;27.32;56.44
61119;BME280;51448;51.660;5.824;2023-06-19T10:49:07;101201.59;;;27.39;55.39
61119;BME280;51448;51.660;5.824;2023-06-19T10:51:59;101196.19;;;27.48;56.83
61119;BME280;51448;51.660;5.824;2023-06-19T10:54:56;101199.72;;;27.59;55.43
61119;BME280;51448;51.660;5.824;2023-06-19T10:57:44;101196.81;;;27.70;55.61
61119;BME280;51448;51.660;5.824;2023-06-19T11:00:33;101197.25;;;27.75;54.81
61119;BME280;51448;51.660;5.824;2023-06-19T11:03:21;101195.78;;;27.81;54.46
61119;BME280;51448;51.660;5.824;2023-06-19T11:06:09;101193.25;;;27.89;53.31
61119;BME280;51448;51.660;5.824;2023-06-19T11:08:58;101190.13;;;27.84;52.98
61119;BME280;51448;51.660;5.824;2023-06-19T11:11:48;101193.56;;;27.66;52.88
61119;BME280;51448;51.660;5.824;2023-06-19T11:14:37;101197.03;;;27.49;53.38
61119;BME280;51448;51.660;5.824;2023-06-19T11:17:27;101196.03;;;27.40;52.92
61119;BME280;51448;51.660;5.824;2023-06-19T11:20:15;101189.50;;;27.43;53.46
61119;BME280;51448;51.660;5.824;2023-06-19T11:23:03;101198.56;;;27.52;53.25
61119;BME280;51448;51.660;5.824;2023-06-19T11:25:51;101191.75;;;27.57;52.45
61119;BME280;51448;51.660;5.824;2023-06-19T11:28:39;101195.59;;;27.55;51.56
61119;BME280;51448;51.660;5.824;2023-06-19T11:31:27;101195.03;;;27.51;51.75
61119;BME280;51448;51.660;5.824;2023-06-19T11:34:16;101196.00;;;27.50;52.20
61119;BME280;51448;51.660;5.824;2023-06-19T11:37:17;101187.63;;;27.53;51.79
61119;BME280;51448;51.660;5.824;2023-06-19T11:40:06;101176.97;;;27.52;51.86
61119;BME280;51448;51.660;5.824;2023-06-19T11:43:03;101191.47;;;27.51;51.62
61119;BME280;51448;51.660;5.824;2023-06-19T11:45:52;101178.38;;;27.56;51.51
61119;BME280;51448;51.660;5.824;2023-06-19T11:48:40;101177.22;;;27.68;51.26
61119;BME280;51448;51.660;5.824;2023-06-19T11:51:39;101171.78;;;27.78;50.96
61119;BME280;51448;51.660;5.824;2023-06-19T11:54:27;101175.19;;;27.80;50.15
61119;BME280;51448;51.660;5.824;2023-06-19T11:57:15;101180.28;;;27.83;49.68
61119;BME280;51448;51.660;5.824;2023-06-19T12:00:03;101172.31;;;27.91;50.22
61119;BME280;51448;51.660;5.824;2023-06-19T12:02:59;101174.75;;;27.94;48.81
61119;BME280;51448;51.660;5.824;2023-06-19T12:05:47;101176.28;;;27.97;47.52
61119;BME280;51448;51.660;5.824;2023-06-19T12:08:48;101188.38;;;28.02;48.74
61119;BME280;51448;51.660;5.824;2023-06-19T12:11:36;101177.34;;;28.14;49.50
61119;BME280;51448;51.660;5.824;2023-06-19T12:14:23;101177.41;;;28.32;48.88
61119;BME280;51448;51.660;5.824;2023-06-19T12:17:12;101175.50;;;28.52;47.88
61119;BME280;51448;51.660;5.824;2023-06-19T12:20:01;101182.53;;;28.62;45.57
61119;BME280;51448;51.660;5.824;2023-06-19T12:22:53;101176.84;;;28.65;44.95
61119;BME280;51448;51.660;5.824;2023-06-19T12:25:40;101181.06;;;28.68;45.04
61119;BME280;51448;51.660;5.824;2023-06-19T12:28:28;101176.59;;;28.77;45.43
61119;BME280;51448;51.660;5.824;2023-06-19T12:31:17;101178.41;;;28.86;46.16
61119;BME280;51448;51.660;5.824;2023-06-19T12:34:09;101184.31;;;28.89;45.81
61119;BME280;51448;51.660;5.824;2023-06-19T12:37:16;101193.84;;;28.94;46.49
61119;BME280;51448;51.660;5.824;2023-06-19T12:40:05;101193.91;;;29.02;46.42
61119;BME280;51448;51.660;5.824;2023-06-19T12:42:57;101200.44;;;29.09;45.75
61119;BME280;51448;51.660;5.824;2023-06-19T12:45:46;101201.41;;;29.08;44.93
61119;BME280;51448;51.660;5.824;2023-06-19T12:48:34;101195.00;;;29.09;44.26
61119;BME280;51448;51.660;5.824;2023-06-19T12:51:22;101190.22;;;29.03;43.77
61119;BME280;51448;51.660;5.824;2023-06-19T12:54:10;101185.09;;;29.00;44.12
61119;BME280;51448;51.660;5.824;2023-06-19T12:56:58;101185.78;;;29.02;44.81
61119;BME280;51448;51.660;5.824;2023-06-19T12:59:46;101178.88;;;29.17;44.59
61119;BME280;51448;51.660;5.824;2023-06-19T13:02:34;101186.22;;;29.25;44.52
61119;BME280;51448;51.660;5.824;2023-06-19T13:05:22;101174.75;;;29.31;44.19
61119;BME280;51448;51.660;5.824;2023-06-19T13:08:10;101186.34;;;29.41;44.36
61119;BME280;51448;51.660;5.824;2023-06-19T13:10:58;101171.84;;;29.51;43.29
61119;BME280;51448;51.660;5.824;2023-06-19T13:13:45;101174.06;;;29.55;43.74
61119;BME280;51448;51.660;5.824;2023-06-19T13:16:33;101176.38;;;29.68;44.28
61119;BME280;51448;51.660;5.824;2023-06-19T13:19:33;101170.38;;;29.82;43.39
61119;BME280;51448;51.660;5.824;2023-06-19T13:22:21;101169.25;;;29.93;43.43
61119;BME280;51448;51.660;5.824;2023-06-19T13:25:11;101170.47;;;29.99;42.43
61119;BME280;51448;51.660;5.824;2023-06-19T13:27:59;101167.91;;;29.97;42.10
61119;BME280;51448;51.660;5.824;2023-06-19T13:30:47;101171.63;;;29.96;42.47
61119;BME280;51448;51.660;5.824;2023-06-19T13:33:35;101176.75;;;29.99;42.55
61119;BME280;51448;51.660;5.824;2023-06-19T13:36:22;101176.25;;;30.04;41.90
61119;BME280;51448;51.660;5.824;2023-06-19T13:39:11;101175.75;;;30.08;42.34
61119;BME280;51448;51.660;5.824;2023-06-19T13:41:59;101178.50;;;30.17;41.45
61119;BME280;51448;51.660;5.824;2023-06-19T13:44:50;101168.69;;;30.16;41.37
61119;BME280;51448;51.660;5.824;2023-06-19T13:47:38;101171.56;;;30.22;41.39
61119;BME280;51448;51.660;5.824;2023-06-19T13:50:27;101167.00;;;30.23;41.71
61119;BME280;51448;51.660;5.824;2023-06-19T13:53:15;101156.16;;;30.23;41.24
61119;BME280;51448;51.660;5.824;2023-06-19T13:56:02;101164.66;;;30.28;41.08
61119;BME280;51448;51.660;5.824;2023-06-19T13:58:50;101152.16;;;30.35;40.64
61119;BME280;51448;51.660;5.824;2023-06-19T14:01:38;101159.97;;;30.38;40.38
61119;BME280;51448;51.660;5.824;2023-06-19T14:04:26;101152.50;;;30.32;39.63
61119;BME280;51448;51.660;5.824;2023-06-19T14:07:14;101160.91;;;30.29;39.71
61119;BME280;51448;51.660;5.824;2023-06-19T14:10:04;101157.84;;;30.24;40.05
61119;BME280;51448;51.660;5.824;2023-06-19T14:12:53;101156.78;;;30.08;40.30
61119;BME280;51448;51.660;5.824;2023-06-19T14:15:40;101154.56;;;30.04;40.00
61119;BME280;51448;51.660;5.824;2023-06-19T14:18:28;101157.41;;;30.02;39.69
61119;BME280;51448;51.660;5.824;2023-06-19T14:21:16;101157.41;;;30.02;40.73
61119;BME280;51448;51.660;5.824;2023-06-19T14:24:04;101160.69;;;30.14;41.04
61119;BME280;51448;51.660;5.824;2023-06-19T14:26:52;101153.81;;;30.28;40.98
61119;BME280;51448;51.660;5.824;2023-06-19T14:29:40;101151.16;;;30.36;40.78
61119;BME280;51448;51.660;5.824;2023-06-19T14:32:28;101155.56;;;30.45;40.26
61119;BME280;51448;51.660;5.824;2023-06-19T14:35:16;101152.56;;;30.57;40.65
61119;BME280;51448;51.660;5.824;2023-06-19T14:38:05;101154.63;;;30.71;39.84
61119;BME280;51448;51.660;5.824;2023-06-19T14:40:53;101139.34;;;30.86;39.59
61119;BME280;51448;51.660;5.824;2023-06-19T14:43:41;101143.66;;;30.97;39.39
61119;BME280;51448;51.660;5.824;2023-06-19T14:46:33;101137.34;;;30.97;38.90
61119;BME280;51448;51.660;5.824;2023-06-19T14:49:26;101140.06;;;30.88;38.95